Time;durP1;ratioP1;P1;durP2;ratioP2;P2;SDS_P1;SDS_P2;PMS_P1;PMS_P2;Temp;Humidity;BMP_temperature;BMP_pressure;BME280_temperature;BME280_humidity;BME280_pressure;Samples;Min_cycle;Max_cycle;Signal;HPM_P1;HPM_P2
2023/09/05 00:00:49;;;;;;;11.75;7.43;;;;;;;17.91;81.32;99618.66;4949028;29;20039;-95
2023/09/05 00:03:18;;;;;;;9.40;7.15;;;;;;;17.87;80.35;99595.06;4946679;29;20110;-96
2023/09/05 00:05:45;;;;;;;8.07;6.63;;;;;;;17.91;79.93;99594.13;4963316;29;20090;-96
2023/09/05 00:08:11;;;;;;;7.30;6.60;;;;;;;17.86;79.92;99590.72;4946192;29;20031;-96
2023/09/05 00:10:39;;;;;;;7.85;6.70;;;;;;;17.88;80.01;99589.28;4946625;29;20031;-96
2023/09/05 00:13:06;;;;;;;8.63;6.38;;;;;;;18.09;78.94;99600.47;4944862;29;20117;-96
2023/09/05 00:15:33;;;;;;;12.27;6.50;;;;;;;18.16;77.87;99611.75;4964438;29;20031;-95
2023/09/05 00:17:59;;;;;;;13.43;6.47;;;;;;;18.13;78.12;99597.94;4962566;29;20054;-96
2023/09/05 00:20:27;;;;;;;7.20;6.47;;;;;;;18.22;78.92;99609.69;4963732;29;20019;-96
2023/09/05 00:22:53;;;;;;;9.00;6.65;;;;;;;18.15;78.39;99604.66;4932674;29;20035;-96
2023/09/05 00:25:18;;;;;;;8.50;6.40;;;;;;;18.16;78.24;99589.94;4932830;29;20035;-96
2023/09/05 00:27:44;;;;;;;12.50;6.70;;;;;;;18.11;78.65;99583.81;4962626;29;20468;-96
2023/09/05 00:30:14;;;;;;;10.63;6.70;;;;;;;18.12;78.45;99579.97;4964743;29;20497;-96
2023/09/05 00:32:42;;;;;;;7.78;6.88;;;;;;;18.23;78.25;99584.03;4964477;28;20095;-95
2023/09/05 00:35:13;;;;;;;9.10;6.90;;;;;;;18.06;78.43;99557.50;4961655;29;20039;-96
2023/09/05 00:37:39;;;;;;;7.82;6.28;;;;;;;18.21;78.63;99574.56;4963158;29;20089;-96
2023/09/05 00:40:08;;;;;;;9.43;6.75;;;;;;;18.10;78.90;99566.66;4947920;29;20035;-96
2023/09/05 00:42:36;;;;;;;10.02;7.03;;;;;;;18.13;79.03;99565.22;4963375;29;20015;-96
2023/09/05 00:45:03;;;;;;;7.30;6.32;;;;;;;18.13;79.31;99563.28;4964049;28;20019;-96
2023/09/05 00:47:29;;;;;;;9.95;6.65;;;;;;;18.15;79.23;99554.81;4947081;29;20031;-96
2023/09/05 00:49:55;;;;;;;8.70;6.82;;;;;;;18.11;78.68;99565.53;4965417;28;20462;-96
2023/09/05 00:52:22;;;;;;;8.90;7.22;;;;;;;18.22;78.22;99570.72;4963541;29;20035;-96
2023/09/05 00:54:50;;;;;;;9.52;7.63;;;;;;;18.21;78.46;99559.00;4963268;29;20041;-96
2023/09/05 00:57:19;;;;;;;10.70;6.25;;;;;;;18.18;78.46;99563.16;4964331;29;20027;-96
2023/09/05 00:59:44;;;;;;;8.32;7.03;;;;;;;18.08;78.73;99568.09;4947985;29;20043;-96
2023/09/05 01:02:12;;;;;;;8.60;7.03;;;;;;;18.07;78.64;99578.16;4947474;29;20035;-96
2023/09/05 01:04:38;;;;;;;7.25;6.43;;;;;;;18.20;78.14;99583.84;4964370;29;20099;-96
2023/09/05 01:07:16;;;;;;;9.30;7.43;;;;;;;18.17;78.00;99580.63;4962900;29;20058;-96
2023/09/05 01:09:48;;;;;;;9.35;7.40;;;;;;;18.27;78.65;99598.63;4946219;29;20062;-96
2023/09/05 01:12:17;;;;;;;11.68;7.20;;;;;;;18.10;78.07;99580.28;4947490;29;20090;-96
2023/09/05 01:14:42;;;;;;;9.25;7.30;;;;;;;18.20;77.73;99590.13;4960201;29;20041;-96
2023/09/05 01:17:08;;;;;;;9.93;7.28;;;;;;;18.26;77.58;99594.31;4931067;29;20047;-96
2023/09/05 01:19:37;;;;;;;8.75;7.10;;;;;;;18.14;77.90;99581.28;4963906;29;20548;-96
2023/09/05 01:22:28;;;;;;;8.75;7.10;;;;;;;18.35;77.40;99594.34;4962557;29;20035;-96
2023/09/05 01:24:56;;;;;;;9.32;7.25;;;;;;;18.10;76.22;99577.56;4947257;29;20091;-96
2023/09/05 01:27:26;;;;;;;8.80;7.90;;;;;;;18.21;76.95;99588.19;4948597;29;20090;-96
2023/09/05 01:29:54;;;;;;;9.18;7.45;;;;;;;18.02;77.77;99566.63;4962451;29;20027;-96
2023/09/05 01:32:20;;;;;;;10.52;7.35;;;;;;;18.01;77.95;99568.53;4930323;29;20031;-96
2023/09/05 01:34:48;;;;;;;9.75;6.97;;;;;;;17.98;77.47;99572.69;4962207;29;20035;-96
2023/09/05 01:37:15;;;;;;;8.45;7.40;;;;;;;18.04;78.22;99584.25;4960038;29;20038;-96
2023/09/05 01:39:41;;;;;;;9.98;7.45;;;;;;;17.92;78.12;99575.88;4944957;29;20031;-96
2023/09/05 01:42:09;;;;;;;8.23;7.30;;;;;;;17.88;77.85;99589.28;4961932;29;20039;-96
2023/09/05 01:44:36;;;;;;;8.38;7.25;;;;;;;17.93;78.34;99594.63;4944938;29;20091;-96
2023/09/05 01:47:09;;;;;;;12.55;7.68;;;;;;;17.92;77.98;99592.22;4962908;29;20031;-96
2023/09/05 01:49:35;;;;;;;10.00;7.38;;;;;;;17.91;78.40;99605.03;4947328;29;20114;-96
2023/09/05 01:52:04;;;;;;;11.88;7.90;;;;;;;17.90;78.42;99610.78;4962202;29;20053;-96
2023/09/05 01:54:42;;;;;;;11.40;7.57;;;;;;;17.93;78.73;99616.44;4946065;29;20039;-96
2023/09/05 01:57:11;;;;;;;11.20;7.57;;;;;;;17.85;78.55;99609.00;4948049;29;20099;-96
2023/09/05 01:59:37;;;;;;;11.43;7.55;;;;;;;17.83;78.18;99607.72;4929513;29;20031;-96
2023/09/05 02:02:11;;;;;;;11.80;7.72;;;;;;;17.81;78.53;99605.25;4973110;28;20046;-96
2023/09/05 02:04:50;;;;;;;12.48;8.07;;;;;;;17.80;78.80;99628.16;4960168;28;20035;-96
2023/09/05 02:13:31;;;;;;;8.35;7.50;;;;;;;17.77;78.89;99615.16;4917278;29;20063;-96
2023/09/05 02:59:06;;;;;;;15.40;8.57;;;;;;;17.10;81.29;99626.78;4929081;29;20045;-95
2023/09/05 03:01:32;;;;;;;13.65;8.88;;;;;;;17.15;81.02;99627.47;4925626;29;20050;-96
2023/09/05 03:04:06;;;;;;;10.35;8.30;;;;;;;17.23;81.02;99627.88;4927655;29;20039;-96
2023/09/05 03:06:31;;;;;;;11.35;8.93;;;;;;;17.07;80.92;99622.75;4927861;29;20028;-96
2023/09/05 03:09:00;;;;;;;9.68;8.68;;;;;;;17.09;81.24;99623.25;4940057;29;20046;-96
2023/09/05 03:11:28;;;;;;;9.82;8.50;;;;;;;17.21;80.73;99630.09;4927583;29;20035;-96
2023/09/05 03:13:56;;;;;;;10.43;8.50;;;;;;;17.13;80.54;99632.41;4927139;29;20078;-96
2023/09/05 03:16:23;;;;;;;9.48;7.72;;;;;;;17.16;80.66;99634.53;4925264;29;20031;-96
2023/09/05 03:18:52;;;;;;;13.45;8.60;;;;;;;17.17;80.43;99630.69;4931445;28;20051;-95
2023/09/05 03:21:19;;;;;;;9.15;8.25;;;;;;;17.27;80.63;99656.88;4947805;28;20035;-96
2023/09/05 03:23:48;;;;;;;9.77;8.23;;;;;;;17.38;80.84;99660.97;4947117;28;20497;-96
2023/09/05 04:44:27;;;;;;;11.93;7.78;;;;;;;17.51;78.39;99650.38;4955291;28;20071;-95
2023/09/05 05:06:29;;;;;;;15.27;10.02;;;;;;;17.43;77.00;99643.75;4961549;28;20110;-96
2023/09/05 05:08:54;;;;;;;11.43;7.45;;;;;;;17.33;77.26;99647.50;4931107;29;20445;-96
2023/09/05 05:11:23;;;;;;;9.85;7.38;;;;;;;17.48;77.59;99662.69;4929223;29;20050;-96
2023/09/05 05:13:49;;;;;;;11.57;7.68;;;;;;;17.49;77.15;99656.13;4929345;29;20035;-95
2023/09/05 05:16:16;;;;;;;8.55;6.80;;;;;;;17.40;77.05;99646.28;4929399;29;20032;-94
2023/09/05 05:18:42;;;;;;;10.30;7.50;;;;;;;17.44;78.05;99660.88;4930425;29;20031;-95
2023/09/05 05:21:08;;;;;;;10.70;7.22;;;;;;;17.43;77.70;99662.81;4928882;29;20065;-95
2023/09/05 05:23:44;;;;;;;8.65;7.18;;;;;;;17.20;77.33;99648.31;4934593;29;20039;-96
2023/09/05 05:26:13;;;;;;;11.68;8.57;;;;;;;17.37;77.77;99655.88;4931442;29;20035;-94
2023/09/05 05:28:39;;;;;;;9.73;6.95;;;;;;;17.52;76.90;99652.00;4932970;29;20066;-95
2023/09/05 05:31:12;;;;;;;12.10;7.63;;;;;;;17.38;76.58;99619.34;4935221;29;20042;-95
2023/09/05 05:36:26;;;;;;;;;;;;;;;;;;;;;
2023/09/05 05:38:54;;;;;;;10.90;8.63;;;;;;;17.53;76.11;99640.75;4951179;29;20099;-96
2023/09/05 05:41:20;;;;;;;14.15;11.02;;;;;;;17.47;76.10;99628.41;4957879;29;20028;-96
2023/09/05 05:43:50;;;;;;;8.98;6.95;;;;;;;17.70;75.23;99644.75;5507365;23;20117;-95
2023/09/05 05:46:17;;;;;;;8.88;5.90;;;;;;;17.69;74.98;99635.78;4950652;28;20039;-95
2023/09/05 05:51:27;;;;;;;9.48;7.05;;;;;;;17.48;76.62;99627.28;5103522;23;20051;-96
2023/09/05 05:53:54;;;;;;;19.77;14.35;;;;;;;17.59;75.85;99625.13;4967594;28;20042;-96
2023/09/05 05:56:19;;;;;;;8.20;6.40;;;;;;;17.58;75.77;99635.22;4974887;28;20110;-95
2023/09/05 05:58:48;;;;;;;8.20;6.72;;;;;;;17.66;75.25;99652.75;4968011;28;20101;-96
2023/09/05 06:01:14;;;;;;;7.20;6.38;;;;;;;17.45;75.47;99638.81;4969446;28;20121;-95
2023/09/05 06:04:15;;;;;;;10.55;6.72;;;;;;;17.61;75.15;99660.22;4971524;28;20322;-96
2023/09/05 06:06:49;;;;;;;14.05;6.78;;;;;;;17.73;74.60;99663.19;5004287;28;20043;-96
2023/09/05 06:09:20;;;;;;;8.65;6.47;;;;;;;17.72;74.48;99669.75;4965951;28;20030;-96
2023/09/05 06:19:28;;;;;;;8.50;6.07;;;;;;;17.79;74.21;99670.13;4842427;29;20088;-96
2023/09/05 06:21:56;;;;;;;8.85;6.40;;;;;;;17.95;73.85;99685.03;4798604;29;20118;-96
2023/09/05 06:24:49;;;;;;;6.53;5.82;;;;;;;18.23;73.09;99705.88;4811291;29;20050;-96
2023/09/05 06:27:19;;;;;;;7.40;5.97;;;;;;;18.23;73.18;99698.50;4837737;29;20122;-96
2023/09/05 06:29:44;;;;;;;8.70;6.07;;;;;;;18.50;71.91;99729.47;4824101;29;20046;-96
2023/09/05 06:32:25;;;;;;;9.05;5.65;;;;;;;18.65;71.57;99709.94;4836876;29;20045;-96
2023/09/05 06:35:17;;;;;;;7.63;5.65;;;;;;;18.87;69.78;99716.50;4823243;29;20629;-96
2023/09/05 06:49:33;;;;;;;7.75;5.53;;;;;;;19.40;67.62;99740.09;5268212;23;20059;-96
2023/09/05 06:55:53;;;;;;;7.20;5.18;;;;;;;19.71;67.29;99771.97;4943827;29;20063;-96
2023/09/05 06:59:03;;;;;;;;;;;;;;;;;;;;;
2023/09/05 07:16:04;;;;;;;15.40;9.75;;;;;;;20.32;63.01;99752.84;5564793;23;20047;-96
2023/09/05 07:33:00;;;;;;;87.57;61.00;;;;;;;20.66;63.01;99726.56;5329935;23;20261;-94
2023/09/05 07:38:21;;;;;;;16.67;12.20;;;;;;;20.81;61.61;99708.78;5661973;23;20042;-96
2023/09/05 08:32:29;;;;;;;9.40;4.93;;;;;;;20.68;62.84;99727.84;5108398;23;19949;-96
2023/09/05 08:35:02;;;;;;;6.75;5.28;;;;;;;20.72;61.98;99730.72;4958968;28;20050;-96
2023/09/05 08:37:32;;;;;;;6.00;5.10;;;;;;;20.94;61.23;99735.94;4958675;28;20047;-96
2023/09/05 08:40:22;;;;;;;10.43;5.18;;;;;;;20.86;61.18;99728.56;4972439;28;20039;-96
2023/09/05 08:48:32;;;;;;;6.80;5.07;;;;;;;21.23;59.96;99704.25;5310767;23;20054;-96
2023/09/05 08:51:07;;;;;;;30.88;6.70;;;;;;;21.41;60.52;99704.91;4991834;28;20018;-96
2023/09/05 08:54:29;;;;;;;;;;;;;;;;;;;;;
2023/09/05 08:57:29;;;;;;;9.40;5.45;;;;;;;21.65;59.58;99726.22;4996469;28;20067;-96
2023/09/05 09:02:31;;;;;;;8.50;4.32;;;;;;;22.11;57.20;99715.34;5093791;23;20051;-96
2023/09/05 09:07:35;;;;;;;8.13;4.50;;;;;;;22.37;56.75;99726.88;5041556;23;20050;-96
2023/09/05 09:10:35;;;;;;;7.07;4.40;;;;;;;22.36;56.01;99697.84;4971667;28;20043;-96
2023/09/05 09:13:47;;;;;;;9.00;4.38;;;;;;;22.60;55.13;99708.06;4955344;28;20054;-95
2023/09/05 09:16:25;;;;;;;7.10;4.28;;;;;;;22.83;54.98;99696.66;4938110;28;20402;-96
2023/09/05 09:19:05;;;;;;;5.95;4.10;;;;;;;22.86;54.84;99687.72;4969854;28;20093;-95
2023/09/05 09:21:35;;;;;;;6.78;4.75;;;;;;;22.95;55.09;99696.66;4972410;28;20068;-96
2023/09/05 09:24:10;;;;;;;5.45;4.07;;;;;;;23.27;53.75;99698.84;4987200;28;20045;-95
2023/09/05 09:29:57;;;;;;;6.38;4.15;;;;;;;23.31;52.89;99706.03;5037749;23;20050;-96
2023/09/05 09:32:25;;;;;;;5.20;3.95;;;;;;;23.29;52.83;99682.81;4950973;29;20134;-96
2023/09/05 09:34:57;;;;;;;10.10;4.28;;;;;;;23.39;53.28;99693.31;4956425;29;20031;-96
2023/09/05 09:37:36;;;;;;;7.43;3.88;;;;;;;23.38;52.03;99676.00;4938186;29;20068;-96
2023/09/05 09:40:06;;;;;;;7.35;4.40;;;;;;;23.57;52.16;99671.84;4938952;29;20039;-96
2023/09/05 09:43:07;;;;;;;7.30;5.43;;;;;;;23.53;52.29;99684.69;4956318;29;20485;-95
2023/09/05 09:46:11;;;;;;;;;;;;;;;;;;;;;
2023/09/05 09:51:21;;;;;;;5.43;3.60;;;;;;;23.61;51.24;99678.25;5361371;23;20074;-96
2023/09/05 10:02:38;;;;;;;;;;;;;;;23.84;50.08;99708.78;4967413;29;20385;-96
2023/09/05 10:16:04;;;;;;;;;;;;;;;;;;;;;
2023/09/05 10:18:25;;;;;;;11.48;3.30;;;;;;;23.84;49.89;99708.78;4899635;29;20075;-96
2023/09/05 10:21:00;;;;;;;8.15;3.60;;;;;;;24.02;49.25;99700.25;4891549;29;20100;-96
2023/09/05 10:26:57;;;;;;;10.35;4.63;;;;;;;24.30;48.16;99697.44;4945904;29;20046;-96
2023/09/05 10:29:46;;;;;;;6.45;3.30;;;;;;;24.55;48.21;99711.88;4931860;29;20116;-96
2023/09/05 10:32:48;;;;;;;7.97;4.93;;;;;;;24.47;47.25;99697.13;4933902;29;20039;-96
2023/09/05 10:35:29;;;;;;;8.18;3.80;;;;;;;24.38;46.94;99702.81;4946204;29;20047;-96
2023/09/05 10:44:30;;;;;;;5.68;2.40;;;;;;;24.64;45.58;99682.25;4915627;29;20081;-96
2023/09/05 10:46:58;;;;;;;5.07;3.22;;;;;;;24.88;45.60;99689.53;4888782;29;20072;-96
2023/09/05 10:49:46;;;;;;;4.75;2.70;;;;;;;25.07;44.90;99680.50;4911610;29;20052;-96
2023/09/05 10:53:06;;;;;;;4.75;2.50;;;;;;;25.41;43.69;99686.41;4881875;29;20077;-96
2023/09/05 11:01:54;;;;;;;5.50;2.80;;;;;;;25.45;42.91;99692.78;4941842;28;20116;-96
2023/09/05 11:04:30;;;;;;;3.53;2.30;;;;;;;25.50;42.30;99686.19;4933589;29;20103;-95
2023/09/05 11:07:01;;;;;;;5.25;2.53;;;;;;;25.34;42.42;99666.97;4940380;29;20421;-96
2023/09/05 11:09:30;;;;;;;7.82;3.08;;;;;;;25.27;43.24;99664.03;4926900;29;20044;-96
2023/09/05 11:12:07;;;;;;;5.35;2.50;;;;;;;25.39;43.45;99670.22;4937970;29;20098;-95
2023/09/05 11:14:36;;;;;;;6.50;2.47;;;;;;;25.34;43.14;99692.56;4940442;29;20040;-96
2023/09/05 11:17:02;;;;;;;4.13;2.55;;;;;;;25.14;43.34;99679.88;4941585;29;20028;-96
2023/09/05 11:19:42;;;;;;;5.50;3.00;;;;;;;25.17;43.22;99654.34;4928213;29;20095;-96
2023/09/05 11:22:48;;;;;;;7.53;2.67;;;;;;;25.43;43.91;99677.78;4908322;29;20047;-96
2023/09/05 11:25:13;;;;;;;4.63;3.00;;;;;;;25.22;44.01;99656.84;4948505;29;20063;-96
2023/09/05 11:27:48;;;;;;;6.15;3.20;;;;;;;25.30;42.77;99660.56;4937702;29;20112;-96
2023/09/05 11:30:16;;;;;;;6.70;3.38;;;;;;;25.37;42.69;99663.47;4938778;29;20055;-96
2023/09/05 11:32:51;;;;;;;6.97;2.67;;;;;;;25.48;42.51;99653.47;4956017;29;20054;-96
2023/09/05 11:35:26;;;;;;;5.40;2.40;;;;;;;25.46;42.36;99661.28;4938170;29;20050;-96
2023/09/05 11:38:06;;;;;;;3.72;2.58;;;;;;;25.41;42.47;99659.63;4935429;29;20047;-96
2023/09/05 11:41:20;;;;;;;8.07;3.08;;;;;;;25.31;43.34;99657.44;4933589;29;20051;-96
2023/09/05 11:43:59;;;;;;;6.47;3.35;;;;;;;25.13;44.15;99654.28;4927328;29;20048;-96
2023/09/05 11:46:25;;;;;;;8.02;3.13;;;;;;;25.17;43.88;99657.09;4877683;29;20140;-94
2023/09/05 11:49:24;;;;;;;;;;;;;;;;;;;;;
2023/09/05 11:51:57;;;;;;;5.88;3.30;;;;;;;25.31;43.84;99659.41;4890955;29;20495;-95
2023/09/05 11:54:56;;;;;;;5.30;3.00;;;;;;;25.19;44.01;99646.50;4897951;29;20615;-96
2023/09/05 11:57:52;;;;;;;5.95;2.88;;;;;;;25.31;42.96;99646.41;4887689;29;20045;-96
2023/09/05 12:00:27;;;;;;;5.32;2.60;;;;;;;25.62;41.38;99658.47;4877434;29;20521;-96
2023/09/05 12:03:15;;;;;;;8.20;2.85;;;;;;;25.66;40.73;99642.81;4876997;29;20048;-96
2023/09/05 12:06:05;;;;;;;10.63;2.70;;;;;;;25.80;40.92;99658.84;4897686;29;20442;-96
2023/09/05 12:08:54;;;;;;;;;;;;;;;;;;;;;
2023/09/05 12:11:27;;;;;;;7.13;3.08;;;;;;;25.74;40.76;99649.25;4836639;29;20105;-96
2023/09/05 12:14:04;;;;;;;7.78;2.85;;;;;;;25.95;39.59;99652.47;4844605;29;20052;-96
2023/09/05 12:17:27;;;;;;;8.10;3.92;;;;;;;26.01;39.66;99653.75;4879654;29;20029;-96
2023/09/05 12:20:29;;;;;;;5.60;3.17;;;;;;;25.97;39.04;99638.31;4870356;29;20097;-96
2023/09/05 12:23:08;;;;;;;;;;;;;;;;;;;;;
2023/09/05 12:26:24;;;;;;;;;;;;;;;;;;;;;
2023/09/05 12:29:22;;;;;;;5.40;2.72;;;;;;;26.10;39.14;99648.00;4974663;28;20051;-96
2023/09/05 12:48:54;;;;;;;2.95;1.88;;;;;;;25.84;38.21;99620.28;5005405;28;19922;-96
2023/09/05 12:58:11;;;;;;;4.93;2.80;;;;;;;25.93;39.03;99637.44;4913414;28;20209;-96
2023/09/05 13:00:56;;;;;;;6.40;3.05;;;;;;;25.96;39.20;99625.66;4972947;28;20484;-96
2023/09/05 13:06:31;;;;;;;;;;;;;;;;;;;;;
2023/09/05 13:09:12;;;;;;;7.93;3.88;;;;;;;25.98;39.33;99624.16;5007695;28;20065;-96
2023/09/05 13:18:28;;;;;;;6.45;3.75;;;;;;;25.98;39.87;99609.53;4930869;29;20148;-96
2023/09/05 13:21:01;;;;;;;7.65;3.70;;;;;;;26.12;39.95;99615.31;4907646;28;20042;-96
2023/09/05 13:23:37;;;;;;;;;;;;;;;;;;;;;
2023/09/05 13:26:04;;;;;;;4.75;2.40;;;;;;;26.01;39.08;99615.13;4964895;28;20133;-94
2023/09/05 13:28:30;;;;;;;6.20;3.40;;;;;;;25.91;39.43;99618.47;4930110;28;20251;-94
2023/09/05 13:31:03;;;;;;;5.22;2.78;;;;;;;25.80;39.99;99620.22;4945081;28;20050;-96
2023/09/05 13:33:29;;;;;;;8.77;2.70;;;;;;;25.79;40.21;99605.63;4944644;28;20081;-96
2023/09/05 13:36:17;;;;;;;;;;;;;;;;;;;;;
2023/09/05 13:45:09;;;;;;;9.45;5.40;;;;;;;25.43;41.49;99609.66;4962000;28;20135;-96
2023/09/05 13:47:37;;;;;;;6.97;3.53;;;;;;;25.33;41.25;99608.25;4979551;28;20035;-96
2023/09/05 13:50:06;;;;;;;4.68;2.67;;;;;;;25.34;41.40;99598.06;4948766;28;20030;-96
2023/09/05 13:55:45;;;;;;;;;;;;;;;;;;;;;
2023/09/05 13:58:13;;;;;;;9.40;3.42;;;;;;;25.14;42.68;99613.72;4983359;28;20088;-95
2023/09/05 14:00:39;;;;;;;5.63;3.13;;;;;;;25.13;42.73;99606.63;4965597;28;20078;-95
2023/09/05 14:03:05;;;;;;;7.13;3.35;;;;;;;25.08;43.11;99627.00;4981796;28;20077;-96
2023/09/05 14:05:45;;;;;;;;;;;;;;;;;;;;;
2023/09/05 14:08:17;;;;;;;7.40;3.50;;;;;;;24.85;43.04;99610.34;4982502;28;20082;-96
2023/09/05 14:10:47;;;;;;;;;;;;;;;24.93;43.49;99619.56;5262905;23;20118;-95
2023/09/05 14:13:12;;;;;;;6.53;2.80;;;;;;;24.72;43.70;99611.63;4947197;29;19910;-95
2023/09/05 14:16:18;;;;;;;;;;;;;;;;;;;;;
2023/09/05 14:19:00;;;;;;;5.22;3.63;;;;;;;24.60;44.19;99623.53;4966503;28;20102;-96
2023/09/05 14:24:18;;;;;;;5.18;2.85;;;;;;;24.51;44.91;99623.72;4953439;29;20094;-95
2023/09/05 14:27:02;;;;;;;7.93;3.60;;;;;;;24.47;44.87;99619.25;4943590;29;20066;-96
2023/09/05 14:29:30;;;;;;;7.93;3.33;;;;;;;24.40;45.11;99623.44;4974932;28;20035;-95
2023/09/05 14:31:59;;;;;;;7.97;3.50;;;;;;;24.31;45.74;99616.50;4976179;28;20039;-96
2023/09/05 14:34:27;;;;;;;7.65;3.20;;;;;;;24.32;45.95;99627.16;4944053;29;20087;-96
2023/09/05 14:37:14;;;;;;;;;;;;;;;;;;;;;
2023/09/05 14:40:20;;;;;;;4.57;3.28;;;;;;;24.22;45.84;99616.69;4960225;29;20114;-96
2023/09/05 15:31:57;;;;;;;7.05;4.05;;;;;;;23.72;47.82;99618.06;5113624;23;20572;-95
2023/09/05 15:55:14;;;;;;;7.70;3.40;;;;;;;23.36;48.27;99608.81;5003547;23;20039;-96
2023/09/05 16:28:11;;;;;;;4.72;3.00;;;;;;;23.15;47.70;99650.97;5257935;23;20042;-96
2023/09/05 16:30:51;;;;;;;6.78;3.15;;;;;;;23.08;47.90;99631.56;5058420;23;20058;-96
2023/09/05 16:33:28;;;;;;;8.27;4.73;;;;;;;23.03;51.71;99631.78;4956265;29;20035;-96
2023/09/05 16:36:38;;;;;;;14.57;5.05;;;;;;;22.96;57.20;99634.28;4927872;29;20363;-96
2023/09/05 16:39:45;;;;;;;11.18;5.40;;;;;;;22.85;58.36;99638.63;4923992;28;20048;-96
2023/09/05 16:42:24;;;;;;;;;;;;;;;;;;;;;
2023/09/05 16:45:10;;;;;;;13.98;6.82;;;;;;;22.69;61.81;99646.78;4933843;29;20100;-95
2023/09/05 16:47:53;;;;;;;21.80;8.48;;;;;;;22.56;62.11;99643.22;4935014;29;20042;-96
2023/09/05 16:50:50;;;;;;;;;;;;;;;;;;;;;
2023/09/05 16:54:06;;;;;;;;;;;;;;;;;;;;;
2023/09/05 17:03:13;;;;;;;12.70;5.20;;;;;;;22.22;61.96;99663.59;4915798;29;20047;-96
2023/09/05 17:05:55;;;;;;;28.85;9.40;;;;;;;22.25;63.22;99688.44;4936432;29;20491;-96
2023/09/05 17:08:45;;;;;;;27.85;9.80;;;;;;;22.05;64.23;99672.81;4906947;29;20115;-96
2023/09/05 17:11:23;;;;;;;15.63;7.82;;;;;;;21.92;65.65;99681.00;4954287;29;20099;-96
2023/09/05 17:14:19;;;;;;;9.10;5.55;;;;;;;21.89;65.43;99678.91;4922469;29;20083;-96
2023/09/05 17:17:05;;;;;;;;;;;;;;;;;;;;;
2023/09/05 17:19:43;;;;;;;7.32;4.75;;;;;;;22.13;61.70;99693.88;4914697;29;20084;-96
2023/09/05 17:22:19;;;;;;;13.13;7.65;;;;;;;21.78;68.77;99680.47;4916144;29;20523;-96
2023/09/05 17:25:23;;;;;;;45.58;15.60;;;;;;;21.70;69.88;99692.31;4931046;29;20044;-96
2023/09/05 17:31:18;;;;;;;15.20;7.40;;;;;;;21.58;70.59;99707.56;4935226;28;20080;-96
2023/09/05 17:33:58;;;;;;;11.82;6.82;;;;;;;21.58;69.67;99704.81;4900973;29;20391;-96
2023/09/05 17:46:43;;;;;;;16.42;8.07;;;;;;;21.39;72.49;99727.19;4932455;29;20035;-96
2023/09/05 17:49:14;;;;;;;18.17;7.32;;;;;;;21.35;73.45;99728.16;4900372;29;20098;-96
2023/09/05 17:51:41;;;;;;;11.82;7.13;;;;;;;21.18;74.39;99715.38;4901269;29;20059;-96
2023/09/05 18:01:31;;;;;;;12.95;6.35;;;;;;;20.76;73.95;99748.91;4931116;29;20047;-96
2023/09/05 18:04:28;;;;;;;;;;;;;;;;;;;;;
2023/09/05 18:07:09;;;;;;;13.68;6.20;;;;;;;20.78;72.28;99754.03;4883211;29;20053;-96
2023/09/05 18:09:48;;;;;;;13.18;6.55;;;;;;;20.95;72.58;99775.06;4934567;29;20050;-96
2023/09/05 18:12:19;;;;;;;10.23;6.65;;;;;;;20.85;72.21;99757.06;4953005;29;20067;-96
2023/09/05 18:14:50;;;;;;;10.32;6.30;;;;;;;20.88;71.94;99756.44;4952082;29;20035;-96
2023/09/05 18:17:36;;;;;;;33.67;26.98;;;;;;;20.73;74.43;99749.56;4936759;29;20023;-96
2023/09/05 18:20:16;;;;;;;11.23;6.93;;;;;;;20.70;73.96;99761.16;4951553;29;20035;-96
2023/09/05 18:22:59;;;;;;;11.80;6.85;;;;;;;20.74;74.14;99766.78;4939143;29;20039;-96
2023/09/05 18:38:21;;;;;;;12.38;6.03;;;;;;;20.73;73.58;99768.72;4971799;29;20047;-96
2023/09/05 18:41:03;;;;;;;12.47;7.50;;;;;;;20.75;74.36;99762.91;4933875;29;20040;-96
2023/09/05 18:43:37;;;;;;;;;;;;;;;20.85;75.03;99791.84;4933248;29;20280;-96
2023/09/05 19:33:16;;;;;;;10.18;6.50;;;;;;;20.22;75.62;99814.13;4988664;28;20059;-96
2023/09/05 19:36:09;;;;;;;12.60;5.90;;;;;;;20.19;75.11;99818.31;4918470;29;20095;-96
2023/09/05 19:42:07;;;;;;;9.52;4.90;;;;;;;20.20;74.64;99832.78;4936159;29;20076;-96
2023/09/05 19:44:59;;;;;;;10.35;5.32;;;;;;;20.26;74.83;99838.91;4904094;29;20036;-96
2023/09/05 19:47:54;;;;;;;11.43;6.45;;;;;;;20.22;74.97;99821.53;4905639;29;20043;-96
2023/09/05 19:50:39;;;;;;;12.88;5.85;;;;;;;20.21;75.11;99825.41;4895346;29;20061;-96
2023/09/05 19:53:23;;;;;;;8.70;5.75;;;;;;;20.24;74.75;99828.28;4899590;29;20040;-96
2023/09/05 19:56:13;;;;;;;11.30;5.65;;;;;;;20.27;74.68;99826.84;4899710;29;20025;-96
2023/09/05 19:59:05;;;;;;;11.45;4.85;;;;;;;20.38;74.45;99845.34;4886052;29;20070;-96
2023/09/05 20:01:39;;;;;;;9.10;4.97;;;;;;;20.26;74.77;99828.78;4892587;29;20037;-96
2023/09/05 20:04:06;;;;;;;9.75;4.68;;;;;;;20.24;74.43;99836.50;4856825;29;20184;-96
2023/09/05 20:06:32;;;;;;;11.65;5.07;;;;;;;20.28;74.22;99842.94;4896381;29;20095;-96
2023/09/05 20:09:01;;;;;;;8.38;5.15;;;;;;;20.31;73.93;99849.69;4914673;29;20076;-96
2023/09/05 20:11:27;;;;;;;13.45;5.50;;;;;;;20.26;73.90;99838.91;4913791;29;20043;-96
2023/09/05 20:13:58;;;;;;;10.93;6.10;;;;;;;20.33;74.31;99858.38;4913819;29;20051;-96
2023/09/05 20:16:23;;;;;;;10.68;5.78;;;;;;;20.41;73.87;99860.31;4914200;29;20044;-96
2023/09/05 20:18:50;;;;;;;11.85;5.55;;;;;;;20.33;73.81;99844.69;4915532;29;20039;-96
2023/09/05 20:21:19;;;;;;;7.63;5.30;;;;;;;20.46;74.07;99862.06;4914108;29;20070;-96
2023/09/05 20:23:48;;;;;;;9.65;5.13;;;;;;;20.41;73.61;99846.63;4920170;29;20043;-96
2023/09/05 20:26:16;;;;;;;15.82;5.40;;;;;;;20.27;74.53;99838.56;4932467;29;20512;-96
2023/09/05 20:28:45;;;;;;;7.53;5.18;;;;;;;20.27;74.31;99852.25;4933870;29;20039;-96
2023/09/05 20:31:11;;;;;;;13.80;5.78;;;;;;;20.27;73.48;99837.78;4940563;28;20054;-96
2023/09/05 20:33:42;;;;;;;6.60;5.13;;;;;;;20.27;73.87;99846.78;4939280;28;20073;-96
2023/09/05 20:36:10;;;;;;;9.20;5.30;;;;;;;20.23;73.79;99853.22;4938554;28;20039;-96
2023/09/05 20:38:49;;;;;;;8.30;5.32;;;;;;;20.25;74.36;99862.69;4938509;28;20070;-96
2023/09/05 20:41:18;;;;;;;11.95;5.15;;;;;;;20.21;73.64;99844.53;4938690;28;20039;-96
2023/09/05 20:43:50;;;;;;;11.93;5.35;;;;;;;20.12;73.94;99833.59;4936926;28;20070;-96
2023/09/05 20:46:16;;;;;;;10.27;5.07;;;;;;;20.17;73.89;99853.38;4937880;28;20042;-96
2023/09/05 20:48:42;;;;;;;6.35;4.93;;;;;;;20.10;73.98;99844.06;4931020;29;20117;-96
2023/09/05 20:51:13;;;;;;;9.80;5.85;;;;;;;20.08;73.98;99852.56;4929947;29;20044;-96
2023/09/05 20:53:45;;;;;;;12.60;5.83;;;;;;;19.92;75.40;99859.63;4914864;29;20048;-96
2023/09/05 20:56:11;;;;;;;10.75;5.70;;;;;;;19.98;75.69;99872.84;4915091;29;20039;-96
2023/09/05 20:58:41;;;;;;;17.67;5.55;;;;;;;19.90;75.79;99872.78;4930413;29;20039;-96
2023/09/05 21:01:19;;;;;;;;;;;;;;;;;;;;;
2023/09/05 21:03:50;;;;;;;11.68;5.72;;;;;;;19.94;75.78;99866.41;4917309;29;20115;-96
2023/09/05 21:06:23;;;;;;;7.60;5.17;;;;;;;20.05;75.16;99877.03;4916691;29;20039;-96
2023/09/05 21:09:17;;;;;;;;;;;;;;;;;;;;;
2023/09/05 21:11:52;;;;;;;10.45;5.05;;;;;;;19.83;75.50;99865.06;4941815;29;20059;-96
2023/09/05 21:14:31;;;;;;;10.05;5.75;;;;;;;19.79;75.86;99864.09;4924534;29;20079;-96
2023/09/05 21:17:07;;;;;;;9.57;5.85;;;;;;;19.87;76.19;99890.63;4939400;29;20031;-96
2023/09/05 21:20:37;;;;;;;9.43;5.97;;;;;;;19.58;76.96;99858.38;4923001;29;20040;-96
2023/09/05 21:22:52;;;;;;;;;;;;;;;;;;;;;
2023/09/05 21:25:20;;;;;;;12.05;5.93;;;;;;;19.68;76.08;99858.09;4940441;28;20118;-96
2023/09/05 21:27:48;;;;;;;7.43;5.03;;;;;;;19.65;75.89;99847.00;4955018;28;20031;-96
2023/09/05 21:30:19;;;;;;;10.63;5.82;;;;;;;19.75;76.39;99869.38;4952252;28;20031;-96
2023/09/05 21:32:49;;;;;;;8.45;5.63;;;;;;;19.65;76.64;99863.38;4953098;28;20078;-96
2023/09/05 21:35:18;;;;;;;12.07;6.50;;;;;;;19.64;76.46;99851.66;4937461;28;20286;-96
2023/09/05 21:37:56;;;;;;;11.18;5.95;;;;;;;19.66;76.77;99859.53;4956744;28;20456;-96
2023/09/05 21:40:31;;;;;;;11.30;6.07;;;;;;;19.62;76.57;99847.63;4971599;28;20035;-96
2023/09/05 21:43:03;;;;;;;13.90;6.40;;;;;;;19.71;76.66;99870.34;4956049;28;20038;-96
2023/09/05 21:45:36;;;;;;;10.90;6.28;;;;;;;19.64;76.40;99859.06;4969843;28;20505;-96
2023/09/05 21:48:14;;;;;;;9.70;5.85;;;;;;;19.61;76.68;99867.88;4970421;28;20492;-96
2023/09/05 21:50:43;;;;;;;10.77;5.32;;;;;;;19.51;76.69;99864.31;4956147;28;20457;-96